header
chart

Reported and forecast weather at local airports

Important: not to be used for flight planning purposes.


EGBB METAR fetched   Friday 17th Aug @ 00:44:28
EGBB 162320Z 23004KT 200V270 CAVOK 14/10 Q1016

EGCC METAR fetched   Friday 17th Aug @ 00:44:25
EGCC 162320Z AUTO 22005KT 9999 NCD 13/11 Q1015

EGGP METAR fetched   Friday 17th Aug @ 00:44:26
EGGP 162320Z 24006KT CAVOK 15/12 Q1015

EGNH METAR fetched   Friday 17th Aug @ 00:44:26
EGNH 161950Z 25018KT 9999 FEW019 16/13 Q1013

EGNM METAR fetched   Friday 17th Aug @ 00:44:27
EGNM 162320Z 24006KT CAVOK 12/10 Q1014

EGOV METAR fetched   Friday 17th Aug @ 00:44:29
EGOV 162250Z AUTO 27009KT 9999 BKN041/// 14/12 Q1015


EGBB TAF fetched   Friday 17th Aug @ 00:44:29
TAF EGBB 161656Z 1618/1718 26009KT 9999 SCT045

EGCC TAF fetched   Friday 17th Aug @ 00:44:25
TAF EGCC 161657Z 1618/1724 26009KT 9999 SCT040 PROB30 TEMPO 1618/1620 8000 -SHRA PROB30 TEMPO 1717/1724 8000 -RA BKN014

EGGP TAF fetched   Friday 17th Aug @ 00:44:26
TAF EGGP 161657Z 1618/1718 26012KT 9999 SCT025 PROB30 TEMPO 1618/1620 8000 -SHRA PROB30 TEMPO 1716/1718 8000 -RA

EGNM TAF fetched   Friday 17th Aug @ 00:44:28
TAF EGNM 161656Z 1618/1718 24010KT 9999 SCT030 PROB30 TEMPO 1701/1710 BKN010 BECMG 1715/1718 BKN012 PROB40 TEMPO 1715/1718 25015G25KT

EGOV TAF fetched   Friday 17th Aug @ 00:44:29
TAF TAF EGOV 190525Z 1906/1918 04008KT CAVOK PROB30 TEMPO 1906/1912 6000 SHRA TEMPO 1912/1915 4000 +SHRA SCT020 BKN030CB PROB30 TEMPO 1913/1915 VRBG20G30KT 2500 TSGR BKN012

Every effort is made to ensure that this information is free from errors but as it is provided by a third party the accuracy of the reports cannot be guaranteed.